Aérodrome :
LOGIN :

S'inscrire | Disclaimer

   EN    FR    IT 

 










Légende :    VFR   VFR Marginal   IFR   IFR Intensif   IFR Très Intensif
Visi : 
Plafond : 
>= 8 km
>= 3000ft
5 à 8 km
1000 à 3000 ft
1500m à 5 km
500 à 1000 ft
800 à 1500m
200 à 500 ft
< 800m
< 200 ft
Symboles :   Orages  Brouillard  Fortes neiges  Fortes précipitations  Vent > 20 kt
SIGMETs :   Divers  Orages  Givrage  Turbulence  Onde Orograph.  Cendres Volcan.







- Altitude de l'aérodrome : 290 ft
- Code IATA : LAI
- Voir les cartes d'approche


LFRO - Lannion

DERNIER METAR :
  • 280300Z AUTO 19009KT 9999 FEW023/// SCT056/// BKN090/// ///TCU 04/02 Q0990

METARs EXPIRÉS :
  • 280230Z AUTO 20012KT 170V230 9999 FEW016 BKN027 BKN047 04/03 Q0991
  • 280200Z AUTO 20009KT 9999 SCT022/// BKN044/// BKN058/// ///TCU 04/02 Q0991
  • 280130Z AUTO 21011KT 9999 FEW033/// BKN066/// BKN088/// ///TCU 04/02 Q0992
  • 280100Z AUTO 21013KT 9999 SCT036 BKN045 BKN060 04/02 Q0992
  • 280030Z AUTO 22016KT 9999 FEW014 BKN020 BKN026 04/03 Q0993

TAF TAF LFRO
Valide du 27 à 18h jusqu'au 28 à 18h UTC


271700Z 2718/2818 22015G25KT 9999 SCT014 BKN030
TEMPO 2718/2818 4000 SHRA
PROB40
TEMPO 2802/2806 30025G45KT TSRAGR BKN010CB
BECMG 2806/2808 33020G35KT
Pas de NOTAMs connus pour ce terrain.
2 SIGMETs publiés pour la FIR Brest (LFRR) :
 
Turbulence forte
LFRR SIGMET 11 VALID 280000/280400 LFPW
LFRR BREST FIR/UIR SEV TURB FCST WI N4630 W00100 - N4630 W00130 - N4330 W00145 - N4500 W00800 - N4900 W00800 - N5000 W00200 - N5000 W00015 - N4915 W00015 - N4815 W00230 SFC/FL060 STNR NC=
Orages noyés dans la masse
LFRR SIGMET 1 VALID 280300/280500 LFPW
LFRR BREST FIR/UIR EMBD TS OBS WI N4700 W00800 - N4900 W00800 - N5000 W00200 - N5000 W00030 - N4600 W00245 TOP FL270 MOV E 15KT NC=



MET'MAP, la Météo Aéronautique d'un coup d'oeil ! - Copyright ORBIFLY Décembre 2007 - Disclaimer

ORBIFLY MET'MAP TEAM :

Programmation & Développement : Alexandra Zaïnal
Conception & Développement : Baudouin d'Aumeries
Co-Programmation & Développement : Marc-Olivier Méhu
Soutien technique & logistique : Manuel Goepfert

Contact : metmap@orbifly.com




SOURCES & CREDITS :

   NOAA